Galena, Nevada Weather observations

Data are for 10 minute period ending at time listed.
 Day   Time    Ave.   Ave.  Ave.  Vector   Max.   Total    Solar   
  of    of     Air    Rel.  Wind   Wind    Wind  Precip.   Rad.    
Year   Day     Temp.  Hum.  Speed  Dir.    Gust                    
2020   (PST)    F      %     mph   deg.    mph     in.     W/m2    
------------------------------------------------------------------- 
 185    8:00   67.0    37    4.0    81      8.0    0.68     500  
 185    9:00   70.0    32    5.0    77      9.0    0.68     687  
 185   10:00   75.0    20    8.0    96     17.0    0.68     849  
 185   11:00   79.0    14   10.0    51     25.0    0.68     968  
 185   12:00   80.0    10    9.0   195     19.0    0.68    1029  
 185   13:00   80.0    10   13.0   208     25.0    0.68    1034  
 185   14:00   82.0    12    6.0   238     23.0    0.68     989  
 185   15:00   82.0    13    4.0   175     18.0    0.68     882  
 185   16:00   80.0    16   10.0   168     23.0    0.68     734  
 185   17:00   79.0    15    7.0   198     27.0    0.68     557  
 185   18:00   76.0    14    9.0   215     19.0    0.68     243  
 185   19:00   70.0    17    3.0   215     16.0    0.68      72  
 185   20:00   66.0    17    6.0    47     13.0    0.68       8  
 185   21:00   65.0    16    1.0   334     12.0    0.68       0  
 185   22:00   64.0    26    6.0   130     15.0    0.68       0  
 185   23:00   59.0    31    2.0   255     11.0    0.68       0  
 186    0:00   54.0    35    4.0   296      6.0    0.68       0  
 186    1:00   53.0    38    4.0   298      6.0    0.68       0  
 186    2:00   53.0    34    3.0   286      7.0    0.68       0  
 186    3:00   50.0    36    3.0   290      5.0    0.68       0  
 186    4:00   48.0    36    2.0   311      5.0    0.68       0  
 186    5:00   48.0    36    1.0   338      5.0    0.68       3  
 186    6:00   58.0    35    3.0   288      5.0    0.68     109  
 186    7:00   68.0    25    1.0   104      3.0    0.68     304  

Return to Galena, Nevada graphs page.


Western Regional Climate Center,wrcc@dri.edu